Station Historical Data
Daily Summary for March 7, 2018 Units:  English    Metric   Both
« Previous Day
Next Day »
Daily Weekly Monthly Yearly Custom
  High: Low: Average:
Temperature: 38.4 °F 25.2 °F 32 °F
Dew Point: 33.0 °F 22.1 °F 27.8 °F
Humidity: 90% 71% 84%
Wind Speed: 13.0mph 0.0mph 2.9mph
Wind Gust: 18.0mph - -
Wind- - SSW
Pressure: 29.81 in 29.70 in -
Precipitation: 0.00 in    
Historical Graphs
 
 
Tabular Data for March 7, 2018
Time Temperature Dew Point Pressure Wind Wind Speed Wind Gust Humidity Rainfall Rate (Hourly)
00:04 29.4 °F 25.4 °F 29.75 in Calm     85% 0.00 in
00:09 29.3 °F 25.4 °F 29.75 in Calm   2.0 mph 85% 0.00 in
00:14 29.1 °F 25.2 °F 29.75 in Calm   2.0 mph 85% 0.00 in
00:19 28.8 °F 24.9 °F 29.75 in Calm     85% 0.00 in
00:24 28.5 °F 24.6 °F 29.75 in Calm     85% 0.00 in
00:29 28.1 °F 24.2 °F 29.75 in Calm     85% 0.00 in
00:34 28.2 °F 24.6 °F 29.74 in Calm   1.0 mph 86% 0.00 in
00:39 28.3 °F 24.6 °F 29.74 in Calm   1.0 mph 86% 0.00 in
00:44 28.2 °F 24.6 °F 29.75 in Calm     86% 0.00 in
00:49 28.2 °F 24.6 °F 29.74 in Calm     86% 0.00 in
00:54 28.2 °F 24.6 °F 29.74 in Calm     86% 0.00 in
00:59 28.3 °F 24.9 °F 29.74 in Calm     87% 0.00 in
01:04 28.2 °F 24.6 °F 29.74 in Calm     86% 0.00 in
01:09 28.2 °F 24.6 °F 29.74 in Calm     86% 0.00 in
01:14 28.1 °F 24.5 °F 29.74 in Calm     86% 0.00 in
01:19 27.9 °F 24.3 °F 29.74 in Calm     86% 0.00 in
01:24 27.9 °F 24.5 °F 29.74 in Calm     87% 0.00 in
01:29 27.9 °F 24.5 °F 29.74 in Calm     87% 0.00 in
01:34 27.9 °F 24.5 °F 29.74 in Calm     87% 0.00 in
01:39 27.9 °F 24.5 °F 29.74 in Calm     87% 0.00 in
01:44 27.9 °F 24.5 °F 29.74 in Calm     87% 0.00 in
01:49 28.0 °F 24.6 °F 29.73 in Calm     87% 0.00 in
01:54 28.2 °F 24.8 °F 29.73 in Calm     87% 0.00 in
01:59 28.4 °F 24.7 °F 29.73 in Calm     86% 0.00 in
02:04 28.5 °F 24.8 °F 29.73 in Calm     86% 0.00 in
02:09 28.7 °F 25.3 °F 29.73 in Calm     87% 0.00 in
02:14 28.8 °F 25.1 °F 29.73 in Calm     86% 0.00 in
02:19 28.8 °F 25.1 °F 29.73 in Calm   2.0 mph 86% 0.00 in
02:24 28.8 °F 25.1 °F 29.73 in Calm   1.0 mph 86% 0.00 in
02:29 28.7 °F 25.0 °F 29.73 in ESE 1.0 mph 3.0 mph 86% 0.00 in
02:34 28.6 °F 24.9 °F 29.72 in Calm   3.0 mph 86% 0.00 in
02:39 28.4 °F 24.7 °F 29.72 in Calm   2.0 mph 86% 0.00 in
02:44 28.3 °F 24.6 °F 29.72 in Calm     86% 0.00 in
02:49 28.3 °F 24.6 °F 29.72 in Calm     86% 0.00 in
02:54 28.1 °F 24.5 °F 29.73 in Calm     86% 0.00 in
02:59 27.8 °F 24.2 °F 29.72 in Calm     86% 0.00 in
03:04 27.9 °F 24.3 °F 29.72 in Calm     86% 0.00 in
03:09 27.8 °F 24.2 °F 29.72 in Calm     86% 0.00 in
03:14 27.7 °F 24.1 °F 29.72 in Calm     86% 0.00 in
03:19 27.6 °F 24.0 °F 29.72 in Calm     86% 0.00 in
03:24 27.4 °F 23.8 °F 29.72 in Calm     86% 0.00 in
03:29 26.9 °F 23.3 °F 29.72 in Calm     86% 0.00 in
03:34 26.6 °F 23.3 °F 29.72 in Calm     87% 0.00 in
03:39 26.2 °F 22.6 °F 29.73 in Calm     86% 0.00 in
03:44 25.9 °F 22.3 °F 29.72 in Calm     86% 0.00 in
03:49 25.6 °F 22.3 °F 29.72 in Calm     87% 0.00 in
03:54 25.6 °F 22.3 °F 29.72 in Calm     87% 0.00 in
03:59 25.5 °F 22.2 °F 29.72 in Calm     87% 0.00 in
04:09 25.2 °F 22.1 °F 29.72 in Calm     88% 0.00 in
04:14 25.3 °F 22.2 °F 29.72 in Calm     88% 0.00 in
04:19 25.4 °F 22.3 °F 29.72 in Calm     88% 0.00 in
04:24 25.7 °F 22.6 °F 29.72 in Calm     88% 0.00 in
04:30 26.2 °F 23.4 °F 29.71 in Calm     89% 0.00 in
04:35 26.3 °F 23.2 °F 29.71 in Calm     88% 0.00 in
04:44 26.0 °F 22.9 °F 29.71 in Calm     88% 0.00 in
04:49 26.1 °F 23.3 °F 29.70 in Calm     89% 0.00 in
04:54 26.1 °F 23.3 °F 29.70 in Calm     89% 0.00 in
04:59 26.2 °F 23.4 °F 29.70 in Calm     89% 0.00 in
05:04 26.2 °F 23.4 °F 29.71 in Calm     89% 0.00 in
05:09 26.1 °F 23.3 °F 29.70 in Calm     89% 0.00 in
05:14 26.0 °F 23.2 °F 29.70 in Calm     89% 0.00 in
05:19 25.9 °F 23.1 °F 29.70 in Calm     89% 0.00 in
05:24 25.8 °F 23.0 °F 29.71 in Calm     89% 0.00 in
05:29 26.1 °F 23.3 °F 29.71 in Calm     89% 0.00 in
05:34 26.2 °F 23.4 °F 29.71 in Calm     89% 0.00 in
05:39 26.1 °F 23.3 °F 29.71 in Calm     89% 0.00 in
05:44 26.3 °F 23.5 °F 29.71 in Calm     89% 0.00 in
05:49 26.4 °F 23.6 °F 29.71 in Calm     89% 0.00 in
05:54 26.6 °F 23.8 °F 29.71 in Calm     89% 0.00 in
05:59 26.5 °F 23.7 °F 29.72 in Calm     89% 0.00 in
06:04 26.3 °F 23.5 °F 29.72 in Calm     89% 0.00 in
06:09 26.2 °F 23.4 °F 29.72 in Calm     89% 0.00 in
06:14 26.1 °F 23.3 °F 29.72 in Calm     89% 0.00 in
06:19 26.0 °F 23.2 °F 29.72 in Calm     89% 0.00 in
06:24 25.9 °F 23.1 °F 29.72 in Calm     89% 0.00 in
06:29 26.1 °F 23.3 °F 29.72 in Calm     89% 0.00 in
06:34 26.1 °F 23.6 °F 29.72 in Calm     90% 0.00 in
06:39 26.5 °F 24.0 °F 29.72 in Calm     90% 0.00 in
06:44 27.2 °F 24.7 °F 29.72 in ESE 1.0 mph 1.0 mph 90% 0.00 in
06:49 27.6 °F 25.1 °F 29.72 in Calm   1.0 mph 90% 0.00 in
06:54 27.9 °F 25.3 °F 29.72 in Calm     90% 0.00 in
06:59 28.1 °F 25.3 °F 29.72 in Calm     89% 0.00 in
07:04 28.0 °F 25.2 °F 29.72 in Calm     89% 0.00 in
07:09 27.9 °F 25.1 °F 29.72 in Calm     89% 0.00 in
07:14 28.2 °F 25.4 °F 29.72 in Calm     89% 0.00 in
07:19 28.5 °F 25.7 °F 29.72 in Calm     89% 0.00 in
07:24 28.9 °F 26.1 °F 29.72 in Calm     89% 0.00 in
07:29 29.2 °F 26.4 °F 29.72 in Calm     89% 0.00 in
07:34 29.6 °F 26.8 °F 29.72 in Calm     89% 0.00 in
07:39 29.9 °F 27.1 °F 29.72 in Calm     89% 0.00 in
07:44 30.3 °F 27.4 °F 29.72 in Calm   2.0 mph 89% 0.00 in
07:49 30.5 °F 27.4 °F 29.72 in Calm   2.0 mph 88% 0.00 in
07:54 30.8 °F 27.7 °F 29.72 in Calm   1.0 mph 88% 0.00 in
07:59 30.9 °F 27.5 °F 29.72 in Calm     87% 0.00 in
08:04 31.1 °F 27.7 °F 29.72 in Calm     87% 0.00 in
08:09 31.5 °F 28.1 °F 29.72 in Calm     87% 0.00 in
08:14 31.6 °F 27.9 °F 29.72 in Calm     86% 0.00 in
08:19 31.7 °F 28.0 °F 29.72 in Calm     86% 0.00 in
08:24 31.9 °F 28.2 °F 29.72 in Calm     86% 0.00 in
08:29 32.2 °F 28.2 °F 29.72 in Calm     85% 0.00 in
08:34 32.4 °F 28.4 °F 29.72 in Calm   3.0 mph 85% 0.00 in
08:39 32.5 °F 28.2 °F 29.72 in East 1.0 mph 5.0 mph 84% 0.00 in
08:44 32.7 °F 28.4 °F 29.72 in East 1.0 mph 5.0 mph 84% 0.00 in
08:49 32.8 °F 28.5 °F 29.72 in Calm   5.0 mph 84% 0.00 in
08:54 33.0 °F 28.4 °F 29.72 in East 1.0 mph 5.0 mph 83% 0.00 in
08:59 33.3 °F 28.4 °F 29.72 in Calm   2.0 mph 82% 0.00 in
09:04 33.5 °F 28.6 °F 29.72 in Calm   3.0 mph 82% 0.00 in
09:09 33.9 °F 28.7 °F 29.72 in Calm   5.0 mph 81% 0.00 in
09:14 34.1 °F 28.6 °F 29.72 in ENE 3.0 mph 7.0 mph 80% 0.00 in
09:19 34.2 °F 28.7 °F 29.72 in Calm   6.0 mph 80% 0.00 in
09:24 34.4 °F 28.9 °F 29.72 in ENE 2.0 mph 6.0 mph 80% 0.00 in
09:29 34.6 °F 29.1 °F 29.72 in ENE 1.0 mph 4.0 mph 80% 0.00 in
09:34 34.4 °F 28.6 °F 29.72 in East 1.0 mph 5.0 mph 79% 0.00 in
09:39 34.6 °F 28.8 °F 29.72 in East 2.0 mph 5.0 mph 79% 0.00 in
09:44 34.8 °F 29.0 °F 29.72 in ENE 1.0 mph 5.0 mph 79% 0.00 in
09:49 34.8 °F 29.0 °F 29.72 in ENE 2.0 mph 8.0 mph 79% 0.00 in
09:54 34.8 °F 28.6 °F 29.72 in East 3.0 mph 7.0 mph 78% 0.00 in
09:59 35.2 °F 29.0 °F 29.72 in East 2.0 mph 7.0 mph 78% 0.00 in
10:04 35.3 °F 29.1 °F 29.72 in East 2.0 mph 8.0 mph 78% 0.00 in
10:09 35.3 °F 28.8 °F 29.71 in ENE 2.0 mph 8.0 mph 77% 0.00 in
10:14 35.7 °F 29.2 °F 29.71 in ENE 3.0 mph 4.0 mph 77% 0.00 in
10:19 35.9 °F 29.1 °F 29.72 in East 3.0 mph 8.0 mph 76% 0.00 in
10:24 35.8 °F 29.0 °F 29.72 in Calm   7.0 mph 76% 0.00 in
10:29 35.9 °F 29.1 °F 29.71 in ENE 3.0 mph 7.0 mph 76% 0.00 in
10:34 36.1 °F 29.3 °F 29.71 in East 3.0 mph 7.0 mph 76% 0.00 in
10:39 36.4 °F 29.6 °F 29.72 in East 2.0 mph 6.0 mph 76% 0.00 in
10:44 36.5 °F 29.3 °F 29.72 in East 1.0 mph 6.0 mph 75% 0.00 in
10:49 36.3 °F 29.1 °F 29.71 in ENE 2.0 mph 7.0 mph 75% 0.00 in
10:54 36.3 °F 29.1 °F 29.71 in ENE 2.0 mph 4.0 mph 75% 0.00 in
10:59 36.4 °F 28.9 °F 29.71 in East 1.0 mph 6.0 mph 74% 0.00 in
11:04 36.5 °F 29.0 °F 29.72 in East 5.0 mph 6.0 mph 74% 0.00 in
11:09 36.6 °F 29.1 °F 29.72 in East 2.0 mph 6.0 mph 74% 0.00 in
11:14 36.7 °F 29.2 °F 29.72 in East 2.0 mph 6.0 mph 74% 0.00 in
11:19 36.8 °F 29.3 °F 29.72 in ENE 2.0 mph 6.0 mph 74% 0.00 in
11:24 36.9 °F 29.4 °F 29.72 in Calm   4.0 mph 74% 0.00 in
11:29 37.0 °F 29.5 °F 29.72 in ENE 3.0 mph 5.0 mph 74% 0.00 in
11:34 36.9 °F 29.1 °F 29.72 in NE 3.0 mph 4.0 mph 73% 0.00 in
11:39 36.9 °F 29.1 °F 29.72 in NE 2.0 mph 4.0 mph 73% 0.00 in
11:44 37.0 °F 29.1 °F 29.72 in NE 2.0 mph 4.0 mph 73% 0.00 in
11:49 37.2 °F 29.3 °F 29.72 in NE 2.0 mph 4.0 mph 73% 0.00 in
11:54 37.3 °F 29.4 °F 29.72 in NE 1.0 mph 4.0 mph 73% 0.00 in
11:59 37.6 °F 29.7 °F 29.72 in NE 1.0 mph 3.0 mph 73% 0.00 in
12:04 37.7 °F 29.5 °F 29.72 in Calm   3.0 mph 72% 0.00 in
12:09 37.9 °F 29.7 °F 29.72 in Calm     72% 0.00 in
12:14 37.7 °F 29.1 °F 29.72 in Calm     71% 0.00 in
12:19 37.7 °F 29.5 °F 29.72 in NE 1.0 mph 3.0 mph 72% 0.00 in
12:24 37.7 °F 29.5 °F 29.72 in Calm   3.0 mph 72% 0.00 in
12:29 37.7 °F 29.5 °F 29.72 in NNE 1.0 mph 4.0 mph 72% 0.00 in
12:34 37.6 °F 29.7 °F 29.72 in Calm     73% 0.00 in
12:39 37.5 °F 29.6 °F 29.72 in Calm   4.0 mph 73% 0.00 in
12:44 37.5 °F 30.0 °F 29.72 in SSW 1.0 mph 6.0 mph 74% 0.00 in
12:49 37.3 °F 30.1 °F 29.72 in WSW 4.0 mph 9.0 mph 75% 0.00 in
12:54 36.7 °F 30.2 °F 29.72 in SW 4.0 mph 9.0 mph 77% 0.00 in
12:59 36.2 °F 30.3 °F 29.72 in SW 5.0 mph 8.0 mph 79% 0.00 in
13:04 35.9 °F 30.6 °F 29.72 in SW 3.0 mph 6.0 mph 81% 0.00 in
13:09 35.9 °F 31.2 °F 29.72 in SW 3.0 mph 6.0 mph 83% 0.00 in
13:14 36.2 °F 31.8 °F 29.72 in SW 3.0 mph 5.0 mph 84% 0.00 in
13:19 36.1 °F 31.7 °F 29.72 in SW 4.0 mph 8.0 mph 84% 0.00 in
13:24 35.9 °F 31.8 °F 29.72 in SW 4.0 mph 8.0 mph 85% 0.00 in
13:29 35.8 °F 31.7 °F 29.72 in SW 4.0 mph 8.0 mph 85% 0.00 in
13:34 35.7 °F 31.9 °F 29.72 in WSW 5.0 mph 11.0 mph 86% 0.00 in
13:39 35.4 °F 31.6 °F 29.72 in WSW 6.0 mph 11.0 mph 86% 0.01 in
13:44 35.3 °F 31.5 °F 29.72 in SW 6.0 mph 12.0 mph 86% 0.01 in
13:49 35.2 °F 31.7 °F 29.72 in WSW 5.0 mph 9.0 mph 87% 0.01 in
13:54 35.1 °F 31.6 °F 29.72 in SW 6.0 mph 10.0 mph 87% 0.01 in
13:59 34.9 °F 31.4 °F 29.72 in WSW 5.0 mph 13.0 mph 87% 0.01 in
14:04 34.8 °F 31.3 °F 29.72 in WSW 5.0 mph 13.0 mph 87% 0.01 in
14:09 34.9 °F 31.4 °F 29.72 in WSW 5.0 mph 8.0 mph 87% 0.01 in
14:14 35.0 °F 31.8 °F 29.72 in West 4.0 mph 12.0 mph 88% 0.01 in
14:19 35.0 °F 31.8 °F 29.72 in West 4.0 mph 12.0 mph 88% 0.01 in
14:24 34.9 °F 31.7 °F 29.72 in SW 9.0 mph 13.0 mph 88% 0.01 in
14:29 34.9 °F 31.7 °F 29.72 in WSW 5.0 mph 13.0 mph 88% 0.01 in
14:34 34.7 °F 31.5 °F 29.72 in WSW 6.0 mph 13.0 mph 88% 0.01 in
14:39 34.5 °F 31.3 °F 29.72 in WSW 6.0 mph 14.0 mph 88% 0.00 in
14:44 34.6 °F 31.4 °F 29.73 in WSW 6.0 mph 14.0 mph 88% 0.00 in
14:49 34.8 °F 31.6 °F 29.72 in WSW 5.0 mph 8.0 mph 88% 0.00 in
14:54 34.9 °F 31.7 °F 29.73 in West 4.0 mph 10.0 mph 88% 0.00 in
14:59 35.1 °F 31.9 °F 29.73 in West 4.0 mph 8.0 mph 88% 0.00 in
15:04 35.2 °F 31.7 °F 29.73 in West 1.0 mph 8.0 mph 87% 0.00 in
15:09 35.5 °F 32.0 °F 29.73 in SW 3.0 mph 7.0 mph 87% 0.00 in
15:14 35.7 °F 31.9 °F 29.73 in West 3.0 mph 7.0 mph 86% 0.00 in
15:24 36.3 °F 31.9 °F 29.74 in WSW 3.0 mph 6.0 mph 84% 0.00 in
15:29 36.6 °F 32.2 °F 29.74 in WSW 2.0 mph 5.0 mph 84% 0.00 in
15:34 37.1 °F 32.4 °F 29.74 in WSW 3.0 mph 8.0 mph 83% 0.00 in
15:40 38.0 °F 33.0 °F 29.74 in SW 3.0 mph 8.0 mph 82% 0.00 in
15:50 38.4 °F 32.8 °F 29.75 in SSW 4.0 mph 7.0 mph 80% 0.00 in
15:59 36.6 °F 31.6 °F 29.75 in South 4.0 mph 7.0 mph 82% 0.00 in
16:04 36.3 °F 31.3 °F 29.75 in SSW 5.0 mph 9.0 mph 82% 0.00 in
16:09 36.1 °F 31.4 °F 29.75 in SW 5.0 mph 9.0 mph 83% 0.00 in
16:14 35.9 °F 31.2 °F 29.75 in SW 2.0 mph 8.0 mph 83% 0.00 in
16:19 36.0 °F 31.3 °F 29.76 in SSW 4.0 mph 8.0 mph 83% 0.00 in
16:24 35.9 °F 31.2 °F 29.75 in SW 4.0 mph 9.0 mph 83% 0.00 in
16:29 35.9 °F 31.5 °F 29.76 in SW 4.0 mph 11.0 mph 84% 0.00 in
16:39 36.0 °F 31.6 °F 29.76 in SSW 4.0 mph 9.0 mph 84% 0.00 in
16:44 36.2 °F 31.5 °F 29.76 in SW 6.0 mph 8.0 mph 83% 0.00 in
16:49 36.3 °F 31.6 °F 29.76 in SSW 5.0 mph 8.0 mph 83% 0.00 in
16:54 36.4 °F 31.4 °F 29.76 in SSW 4.0 mph 9.0 mph 82% 0.00 in
16:59 36.0 °F 31.0 °F 29.76 in SW 4.0 mph 9.0 mph 82% 0.00 in
17:04 35.5 °F 30.8 °F 29.76 in SW 5.0 mph 11.0 mph 83% 0.00 in
17:09 35.4 °F 30.8 °F 29.76 in SW 5.0 mph 11.0 mph 83% 0.00 in
17:14 35.3 °F 30.7 °F 29.76 in SW 5.0 mph 9.0 mph 83% 0.00 in
17:19 35.1 °F 30.5 °F 29.76 in SW 4.0 mph 7.0 mph 83% 0.00 in
17:24 34.9 °F 30.3 °F 29.77 in SW 4.0 mph 9.0 mph 83% 0.00 in
17:29 34.7 °F 30.1 °F 29.77 in SW 4.0 mph 9.0 mph 83% 0.00 in
17:34 34.6 °F 30.0 °F 29.77 in WSW 4.0 mph 8.0 mph 83% 0.00 in
17:39 34.5 °F 29.9 °F 29.78 in SW 8.0 mph 8.0 mph 83% 0.00 in
17:44 34.4 °F 30.1 °F 29.78 in SW 4.0 mph 8.0 mph 84% 0.00 in
17:49 34.3 °F 30.0 °F 29.78 in SW 3.0 mph 5.0 mph 84% 0.00 in
17:54 34.1 °F 29.8 °F 29.78 in SW 7.0 mph 8.0 mph 84% 0.00 in
17:59 34.1 °F 29.8 °F 29.78 in WSW 7.0 mph 9.0 mph 84% 0.00 in
18:04 34.0 °F 29.7 °F 29.78 in SW 5.0 mph 10.0 mph 84% 0.00 in
18:09 34.0 °F 29.7 °F 29.78 in WSW 6.0 mph 10.0 mph 84% 0.00 in
18:14 34.0 °F 29.7 °F 29.78 in WSW 7.0 mph 16.0 mph 84% 0.00 in
18:19 33.9 °F 29.6 °F 29.79 in WSW 7.0 mph 16.0 mph 84% 0.00 in
18:24 33.9 °F 29.9 °F 29.79 in WSW 6.0 mph 13.0 mph 85% 0.00 in
18:29 33.8 °F 29.5 °F 29.79 in WSW 6.0 mph 13.0 mph 84% 0.00 in
18:34 33.7 °F 29.4 °F 29.79 in South 7.0 mph 13.0 mph 84% 0.00 in
18:39 33.6 °F 29.3 °F 29.79 in WSW 6.0 mph 14.0 mph 84% 0.00 in
18:44 33.5 °F 29.2 °F 29.79 in WSW 5.0 mph 11.0 mph 84% 0.00 in
18:49 33.4 °F 29.1 °F 29.79 in WSW 9.0 mph 10.0 mph 84% 0.00 in
18:54 33.3 °F 29.0 °F 29.79 in SW 9.0 mph 11.0 mph 84% 0.00 in
18:59 33.3 °F 29.0 °F 29.79 in SW 5.0 mph 11.0 mph 84% 0.00 in
19:04 33.1 °F 28.8 °F 29.79 in WSW 5.0 mph 12.0 mph 84% 0.00 in
19:09 33.0 °F 28.7 °F 29.79 in South 6.0 mph 10.0 mph 84% 0.00 in
19:14 33.0 °F 28.7 °F 29.79 in SW 6.0 mph 12.0 mph 84% 0.00 in
19:19 33.0 °F 28.7 °F 29.79 in SW 6.0 mph 12.0 mph 84% 0.00 in
19:24 33.0 °F 28.7 °F 29.79 in SW 5.0 mph 9.0 mph 84% 0.00 in
19:29 32.8 °F 28.5 °F 29.79 in SW 5.0 mph 9.0 mph 84% 0.00 in
19:34 32.7 °F 28.4 °F 29.79 in SW 6.0 mph 13.0 mph 84% 0.00 in
19:39 32.7 °F 28.4 °F 29.79 in SW 6.0 mph 15.0 mph 84% 0.00 in
19:44 32.6 °F 28.3 °F 29.79 in SW 10.0 mph 12.0 mph 84% 0.00 in
19:49 32.5 °F 28.2 °F 29.79 in WSW 2.0 mph 12.0 mph 84% 0.00 in
19:54 32.5 °F 28.2 °F 29.79 in West 9.0 mph 12.0 mph 84% 0.00 in
19:59 32.5 °F 28.2 °F 29.79 in SSW 2.0 mph 10.0 mph 84% 0.00 in
20:04 32.5 °F 28.2 °F 29.79 in SSW 7.0 mph 12.0 mph 84% 0.00 in
20:09 32.4 °F 28.1 °F 29.79 in South 10.0 mph 12.0 mph 84% 0.00 in
20:14 32.4 °F 28.1 °F 29.79 in South 2.0 mph 10.0 mph 84% 0.00 in
20:19 32.4 °F 28.4 °F 29.79 in SW 6.0 mph 13.0 mph 85% 0.00 in
20:24 32.4 °F 28.4 °F 29.79 in SW 6.0 mph 13.0 mph 85% 0.00 in
20:29 32.3 °F 28.3 °F 29.79 in WSW 5.0 mph 13.0 mph 85% 0.00 in
20:34 32.2 °F 28.5 °F 29.79 in SW 6.0 mph 13.0 mph 86% 0.00 in
20:39 32.2 °F 28.5 °F 29.80 in SW 7.0 mph 13.0 mph 86% 0.00 in
20:44 32.1 °F 28.4 °F 29.80 in SW 7.0 mph 13.0 mph 86% 0.00 in
20:49 32.1 °F 28.4 °F 29.79 in SW 6.0 mph 12.0 mph 86% 0.00 in
20:54 32.1 °F 28.4 °F 29.79 in WSW 8.0 mph 11.0 mph 86% 0.00 in
20:59 32.2 °F 28.8 °F 29.79 in WSW 6.0 mph 16.0 mph 87% 0.00 in
21:04 32.2 °F 28.8 °F 29.79 in SSW 6.0 mph 13.0 mph 87% 0.00 in
21:09 32.2 °F 28.8 °F 29.80 in SW 7.0 mph 12.0 mph 87% 0.00 in
21:14 32.2 °F 28.8 °F 29.80 in SSW 9.0 mph 17.0 mph 87% 0.00 in
21:19 32.1 °F 28.7 °F 29.79 in SSW 7.0 mph 18.0 mph 87% 0.00 in
21:24 32.1 °F 28.7 °F 29.80 in SW 5.0 mph 16.0 mph 87% 0.00 in
21:29 32.1 °F 28.7 °F 29.80 in SW 8.0 mph 16.0 mph 87% 0.00 in
21:34 32.1 °F 28.7 °F 29.79 in SW 7.0 mph 15.0 mph 87% 0.00 in
21:39 32.1 °F 28.9 °F 29.79 in SW 6.0 mph 12.0 mph 88% 0.00 in
21:44 32.1 °F 28.9 °F 29.79 in SW 4.0 mph 11.0 mph 88% 0.00 in
21:49 32.1 °F 28.9 °F 29.79 in SW 6.0 mph 15.0 mph 88% 0.00 in
21:54 32.1 °F 28.9 °F 29.79 in SW 6.0 mph 15.0 mph 88% 0.00 in
21:59 32.1 °F 28.9 °F 29.79 in SW 7.0 mph 14.0 mph 88% 0.00 in
22:04 32.0 °F 28.8 °F 29.80 in SW 9.0 mph 15.0 mph 88% 0.00 in
22:09 31.9 °F 28.8 °F 29.80 in SW 6.0 mph 18.0 mph 88% 0.00 in
22:14 31.8 °F 28.4 °F 29.80 in SSW 13.0 mph 15.0 mph 87% 0.00 in
22:19 31.7 °F 28.3 °F 29.80 in SW 9.0 mph 15.0 mph 87% 0.00 in
22:24 31.6 °F 28.2 °F 29.80 in West 7.0 mph 17.0 mph 87% 0.00 in
22:29 31.7 °F 28.3 °F 29.80 in WSW 4.0 mph 13.0 mph 87% 0.00 in
22:34 31.7 °F 28.3 °F 29.80 in WSW 6.0 mph 16.0 mph 87% 0.00 in
22:39 31.6 °F 28.2 °F 29.80 in SW 8.0 mph 16.0 mph 87% 0.00 in
22:44 31.6 °F 28.2 °F 29.80 in SW 8.0 mph 15.0 mph 87% 0.00 in
22:49 31.6 °F 27.9 °F 29.80 in SW 7.0 mph 12.0 mph 86% 0.00 in
22:54 31.5 °F 27.8 °F 29.80 in SW 7.0 mph 14.0 mph 86% 0.00 in
22:59 31.4 °F 27.7 °F 29.80 in SW 7.0 mph 14.0 mph 86% 0.00 in
23:04 31.4 °F 27.7 °F 29.80 in SW 6.0 mph 16.0 mph 86% 0.00 in
23:09 31.3 °F 27.9 °F 29.80 in SW 13.0 mph 13.0 mph 87% 0.00 in
23:14 31.2 °F 27.8 °F 29.80 in SW 7.0 mph 13.0 mph 87% 0.00 in
23:19 31.2 °F 27.8 °F 29.80 in SW 8.0 mph 15.0 mph 87% 0.00 in
23:24 31.2 °F 27.8 °F 29.80 in WSW 6.0 mph 14.0 mph 87% 0.00 in
23:29 31.2 °F 27.8 °F 29.80 in SW 9.0 mph 14.0 mph 87% 0.00 in
23:34 31.2 °F 27.8 °F 29.80 in WSW 8.0 mph 16.0 mph 87% 0.00 in
23:39 31.2 °F 27.8 °F 29.80 in WSW 7.0 mph 15.0 mph 87% 0.00 in
23:44 31.1 °F 27.7 °F 29.81 in SW 7.0 mph 16.0 mph 87% 0.00 in
23:49 30.9 °F 27.2 °F 29.81 in SW 8.0 mph 16.0 mph 86% 0.00 in
23:54 30.8 °F 27.1 °F 29.81 in WSW 9.0 mph 16.0 mph 86% 0.00 in
23:59 30.7 °F 27.0 °F 29.81 in WSW 9.0 mph 17.0 mph 86% 0.00 in
Buffalo, New York, USA
Compliments of Weather Underground - 2.5 mb